Time;durP1;ratioP1;P1;durP2;ratioP2;P2;SDS_P1;SDS_P2;PMS_P1;PMS_P2;Temp;Humidity;BMP_temperature;BMP_pressure;BME280_temperature;BME280_humidity;BME280_pressure;Samples;Min_cycle;Max_cycle;Signal;HPM_P1;HPM_P2
2022/07/25 00:01:15;;;;;;;10.82;5.30;;;;;;;;;;6290825;28;20051;-59
2022/07/25 00:04:16;;;;;;;9.73;5.57;;;;;;;;;;6292674;28;20040;-59
2022/07/25 00:07:17;;;;;;;9.27;4.93;;;;;;;;;;6288379;28;20055;-59
2022/07/25 00:10:18;;;;;;;10.30;5.30;;;;;;;;;;6288521;28;20034;-60
2022/07/25 00:13:19;;;;;;;7.57;5.32;;;;;;;;;;6290558;28;20047;-59
2022/07/25 00:16:19;;;;;;;7.93;5.20;;;;;;;;;;6290560;28;20055;-59
2022/07/25 00:19:20;;;;;;;7.32;5.53;;;;;;;;;;6289062;28;20044;-59
2022/07/25 00:22:20;;;;;;;10.32;5.28;;;;;;;;;;6289273;28;20500;-59
2022/07/25 00:25:21;;;;;;;11.10;5.22;;;;;;;;;;6290919;28;20040;-59
2022/07/25 00:28:21;;;;;;;8.73;5.57;;;;;;;;;;6288951;28;20104;-60
2022/07/25 00:31:22;;;;;;;8.25;5.38;;;;;;;;;;6289941;28;20086;-59
2022/07/25 00:34:23;;;;;;;7.40;5.10;;;;;;;;;;6290227;28;20047;-60
2022/07/25 00:37:23;;;;;;;8.02;5.25;;;;;;;;;;6287965;28;20695;-59
2022/07/25 00:40:24;;;;;;;7.70;4.68;;;;;;;;;;6288992;28;20052;-59
2022/07/25 00:43:24;;;;;;;6.93;4.65;;;;;;;;;;6289369;28;20126;-59
2022/07/25 00:46:25;;;;;;;13.55;5.50;;;;;;;;;;6288646;28;20056;-59
2022/07/25 00:49:26;;;;;;;12.05;5.70;;;;;;;;;;6285510;28;20089;-59
2022/07/25 00:52:26;;;;;;;10.38;5.35;;;;;;;;;;6287962;28;20044;-59
2022/07/25 00:55:28;;;;;;;8.20;5.33;;;;;;;;;;6290558;28;20040;-60
2022/07/25 00:58:28;;;;;;;8.02;5.10;;;;;;;;;;6287588;28;20056;-60
2022/07/25 01:01:29;;;;;;;9.55;4.93;;;;;;;;;;6286508;28;20048;-59
2022/07/25 01:04:30;;;;;;;7.40;5.25;;;;;;;;;;6289938;28;20698;-60
2022/07/25 01:07:31;;;;;;;10.05;5.25;;;;;;;;;;6284814;28;20056;-60
2022/07/25 01:10:32;;;;;;;9.40;5.53;;;;;;;;;;6288557;28;20058;-59
2022/07/25 01:13:33;;;;;;;13.68;7.05;;;;;;;;;;6289444;28;20700;-59
2022/07/25 01:16:34;;;;;;;10.07;6.57;;;;;;;;;;6291952;28;20060;-59
2022/07/25 01:19:34;;;;;;;9.68;5.72;;;;;;;;;;6285424;28;20089;-59
2022/07/25 01:22:35;;;;;;;9.57;5.75;;;;;;;;;;6291034;28;20621;-59
2022/07/25 01:25:35;;;;;;;11.00;5.75;;;;;;;;;;6289930;28;21317;-60
2022/07/25 01:28:36;;;;;;;10.75;6.53;;;;;;;;;;6286851;28;20699;-60
2022/07/25 01:31:37;;;;;;;10.82;6.90;;;;;;;;;;6289728;28;20097;-59
2022/07/25 01:34:37;;;;;;;12.05;6.90;;;;;;;;;;6292093;28;20087;-59
2022/07/25 01:37:40;;;;;;;10.82;7.07;;;;;;;;;;6289375;28;20063;-59
2022/07/25 01:40:41;;;;;;;10.38;6.38;;;;;;;;;;6288728;28;20054;-59
2022/07/25 01:43:42;;;;;;;11.80;7.00;;;;;;;;;;6290517;28;20092;-60
2022/07/25 01:46:42;;;;;;;11.75;6.95;;;;;;;;;;6290106;28;21063;-59
2022/07/25 01:49:43;;;;;;;12.98;7.57;;;;;;;;;;6286055;28;20098;-60
2022/07/25 01:52:44;;;;;;;10.85;7.20;;;;;;;;;;6287379;28;20421;-60
2022/07/25 01:55:45;;;;;;;12.48;7.68;;;;;;;;;;6289685;28;20052;-59
2022/07/25 01:58:46;;;;;;;15.07;8.57;;;;;;;;;;6288342;28;20143;-60
2022/07/25 02:01:46;;;;;;;13.90;8.27;;;;;;;;;;6289488;28;20044;-60
2022/07/25 02:04:47;;;;;;;17.50;8.48;;;;;;;;;;6288960;28;20040;-60
2022/07/25 02:07:47;;;;;;;13.27;7.75;;;;;;;;;;6287495;28;20055;-60
2022/07/25 02:10:48;;;;;;;13.50;8.57;;;;;;;;;;6287166;28;20047;-59
2022/07/25 02:13:48;;;;;;;18.98;10.15;;;;;;;;;;6291407;28;21102;-60
2022/07/25 02:16:49;;;;;;;19.85;10.43;;;;;;;;;;6289435;28;20411;-60
2022/07/25 02:19:50;;;;;;;20.15;10.82;;;;;;;;;;6283159;28;20048;-60
2022/07/25 02:22:50;;;;;;;26.60;12.13;;;;;;;;;;6289288;28;20044;-59
2022/07/25 02:25:51;;;;;;;29.83;12.68;;;;;;;;;;6294606;28;20048;-59
2022/07/25 02:28:52;;;;;;;20.48;10.98;;;;;;;;;;6290529;28;20052;-65
2022/07/25 02:31:52;;;;;;;21.05;11.75;;;;;;;;;;6297040;28;20045;-60
2022/07/25 02:34:53;;;;;;;17.77;9.65;;;;;;;;;;6293710;28;20044;-59
2022/07/25 02:37:54;;;;;;;18.00;10.25;;;;;;;;;;6290740;28;20048;-60
2022/07/25 02:40:54;;;;;;;18.33;10.05;;;;;;;;;;6289855;28;20053;-60
2022/07/25 02:43:55;;;;;;;16.38;8.15;;;;;;;;;;6294016;28;20048;-60
2022/07/25 02:46:55;;;;;;;15.65;8.75;;;;;;;;;;6296556;28;20048;-59
2022/07/25 02:49:56;;;;;;;13.82;8.48;;;;;;;;;;6291631;28;20051;-60
2022/07/25 02:52:56;;;;;;;12.68;7.72;;;;;;;;;;6292911;28;20055;-60
2022/07/25 02:55:57;;;;;;;13.65;7.97;;;;;;;;;;6292329;28;20446;-60
2022/07/25 02:58:58;;;;;;;11.35;7.70;;;;;;;;;;6290200;28;20147;-60
2022/07/25 03:01:58;;;;;;;12.40;7.70;;;;;;;;;;6291343;28;20044;-60
2022/07/25 03:04:59;;;;;;;12.07;7.80;;;;;;;;;;6289746;28;20121;-60
2022/07/25 03:07:59;;;;;;;12.88;7.38;;;;;;;;;;6291611;28;20044;-59
2022/07/25 03:11:00;;;;;;;11.73;6.78;;;;;;;;;;6292783;28;20082;-60
2022/07/25 03:14:00;;;;;;;11.88;7.75;;;;;;;;;;6298289;28;20548;-60
2022/07/25 03:17:01;;;;;;;12.70;6.72;;;;;;;;;;6296100;28;20044;-60
2022/07/25 03:20:03;;;;;;;11.23;6.72;;;;;;;;;;6299594;28;20040;-59
2022/07/25 03:23:03;;;;;;;10.57;6.97;;;;;;;;;;6297189;28;20051;-60
2022/07/25 03:26:04;;;;;;;11.40;7.38;;;;;;;;;;6294728;28;20407;-60
2022/07/25 03:29:05;;;;;;;12.93;7.60;;;;;;;;;;6294664;28;20041;-60
2022/07/25 03:32:06;;;;;;;12.07;7.30;;;;;;;;;;6298156;28;20173;-59
2022/07/25 03:35:07;;;;;;;11.33;7.20;;;;;;;;;;6298332;28;20131;-60
2022/07/25 03:38:07;;;;;;;12.80;7.28;;;;;;;;;;6295622;28;20056;-59
2022/07/25 03:41:08;;;;;;;13.90;7.38;;;;;;;;;;6296743;28;20046;-60
2022/07/25 03:44:09;;;;;;;12.60;7.10;;;;;;;;;;6299056;28;20037;-59
2022/07/25 03:47:09;;;;;;;13.32;6.93;;;;;;;;;;6310326;28;20093;-59
2022/07/25 03:50:10;;;;;;;12.10;7.57;;;;;;;;;;6301957;28;20044;-59
2022/07/25 03:53:10;;;;;;;9.38;6.90;;;;;;;;;;6298322;28;20079;-60
2022/07/25 03:56:11;;;;;;;9.70;6.57;;;;;;;;;;6302515;28;20048;-59
2022/07/25 03:59:14;;;;;;;11.38;6.53;;;;;;;;;;6297306;28;20116;-60
2022/07/25 04:02:15;;;;;;;10.40;6.80;;;;;;;;;;6298079;28;20482;-60
2022/07/25 04:05:15;;;;;;;8.18;5.95;;;;;;;;;;6301140;28;20051;-59
2022/07/25 04:08:16;;;;;;;10.00;6.68;;;;;;;;;;6298566;28;20480;-59
2022/07/25 04:11:17;;;;;;;10.40;6.53;;;;;;;;;;6299483;28;20159;-60
2022/07/25 04:14:17;;;;;;;9.32;6.38;;;;;;;;;;6301053;28;20487;-59
2022/07/25 04:17:18;;;;;;;11.80;7.28;;;;;;;;;;6298321;28;20044;-60
2022/07/25 04:20:19;;;;;;;11.18;6.45;;;;;;;;;;6299164;28;20546;-60
2022/07/25 04:23:19;;;;;;;11.07;6.77;;;;;;;;;;6300912;28;20987;-60
2022/07/25 04:26:20;;;;;;;11.02;6.90;;;;;;;;;;6296219;28;20048;-60
2022/07/25 04:29:21;;;;;;;14.20;7.50;;;;;;;;;;6298840;28;20051;-60
2022/07/25 04:32:21;;;;;;;10.63;7.28;;;;;;;;;;6296130;28;20073;-60
2022/07/25 04:35:22;;;;;;;11.65;7.15;;;;;;;;;;6301875;28;20051;-60
2022/07/25 04:38:22;;;;;;;14.75;7.95;;;;;;;;;;6300053;28;20530;-60
2022/07/25 04:41:23;;;;;;;14.98;7.68;;;;;;;;;;6298875;28;20099;-61
2022/07/25 04:44:23;;;;;;;12.27;8.00;;;;;;;;;;6300781;28;20133;-60
2022/07/25 04:47:24;;;;;;;12.25;7.32;;;;;;;;;;6300775;28;20056;-60
2022/07/25 04:50:25;;;;;;;14.85;8.30;;;;;;;;;;6296549;28;20051;-60
2022/07/25 04:53:26;;;;;;;12.10;7.32;;;;;;;;;;6301287;28;20048;-60
2022/07/25 04:56:26;;;;;;;12.90;7.00;;;;;;;;;;6299281;28;20565;-60
2022/07/25 04:59:27;;;;;;;13.05;6.97;;;;;;;;;;6298165;28;20083;-60
2022/07/25 05:02:27;;;;;;;12.48;7.03;;;;;;;;;;6297326;28;20040;-61
2022/07/25 05:05:28;;;;;;;10.90;7.13;;;;;;;;;;6297495;28;22299;-60
2022/07/25 05:08:28;;;;;;;12.25;7.22;;;;;;;;;;6299699;28;20412;-60
2022/07/25 05:11:29;;;;;;;11.13;6.78;;;;;;;;;;6297578;28;20505;-60
2022/07/25 05:14:29;;;;;;;11.45;6.35;;;;;;;;;;6299757;28;20044;-60
2022/07/25 05:17:30;;;;;;;11.80;7.23;;;;;;;;;;6299325;28;20078;-60
2022/07/25 05:20:31;;;;;;;8.98;6.15;;;;;;;;;;6292371;28;20403;-59
2022/07/25 05:23:31;;;;;;;12.53;7.00;;;;;;;;;;6296278;28;20487;-60
2022/07/25 05:26:32;;;;;;;11.90;7.00;;;;;;;;;;6297855;28;20067;-60
2022/07/25 05:29:32;;;;;;;11.57;6.87;;;;;;;;;;6294375;28;20048;-59
2022/07/25 05:32:33;;;;;;;12.50;7.57;;;;;;;;;;6296114;28;20052;-60
2022/07/25 05:35:34;;;;;;;13.07;6.72;;;;;;;;;;6299825;28;20040;-60
2022/07/25 05:38:34;;;;;;;12.47;7.03;;;;;;;;;;6296862;28;20063;-59
2022/07/25 05:41:35;;;;;;;11.20;7.27;;;;;;;;;;6298738;28;20482;-60
2022/07/25 05:44:36;;;;;;;12.37;7.33;;;;;;;;;;6298465;28;20067;-59
2022/07/25 05:47:36;;;;;;;13.83;7.77;;;;;;;;;;6296392;28;20052;-60
2022/07/25 05:50:37;;;;;;;11.00;6.83;;;;;;;;;;6299405;28;20041;-60
2022/07/25 05:53:38;;;;;;;14.13;7.37;;;;;;;;;;6297840;28;20109;-60
2022/07/25 05:56:38;;;;;;;13.07;7.53;;;;;;;;;;6293380;28;20052;-59
2022/07/25 05:59:39;;;;;;;10.67;7.10;;;;;;;;;;6294433;28;20439;-60
2022/07/25 06:02:39;;;;;;;10.83;6.83;;;;;;;;;;6295260;28;20436;-60
2022/07/25 06:05:40;;;;;;;10.60;6.70;;;;;;;;;;6296206;28;20048;-60
2022/07/25 06:08:41;;;;;;;12.07;6.47;;;;;;;;;;6298715;28;20059;-60
2022/07/25 06:11:41;;;;;;;11.67;7.13;;;;;;;;;;6295950;28;20336;-60
2022/07/25 06:14:42;;;;;;;11.67;6.07;;;;;;;;;;6297338;28;20044;-60
2022/07/25 06:17:42;;;;;;;10.10;6.50;;;;;;;;;;6302125;28;20415;-60
2022/07/25 06:20:43;;;;;;;13.90;7.00;;;;;;;;;;6300850;28;20446;-60
2022/07/25 06:23:43;;;;;;;11.87;7.00;;;;;;;;;;6296442;28;20036;-59
2022/07/25 06:26:44;;;;;;;9.67;6.80;;;;;;;;;;6297799;28;20422;-60
2022/07/25 06:29:44;;;;;;;11.40;7.13;;;;;;;;;;6295507;28;20141;-60
2022/07/25 06:32:45;;;;;;;9.10;6.07;;;;;;;;;;6297077;28;20510;-60
2022/07/25 06:35:46;;;;;;;8.65;6.25;;;;;;;;;;6296990;28;20040;-60
2022/07/25 06:38:47;;;;;;;10.07;6.50;;;;;;;;;;6304392;28;20052;-62
2022/07/25 06:41:47;;;;;;;8.67;6.10;;;;;;;;;;6298915;28;20047;-60
2022/07/25 06:44:48;;;;;;;8.95;5.80;;;;;;;;;;6296977;28;20502;-60
2022/07/25 06:47:49;;;;;;;8.37;5.80;;;;;;;;;;6292576;28;20048;-59
2022/07/25 06:50:50;;;;;;;9.57;5.80;;;;;;;;;;6293903;28;20032;-60
2022/07/25 06:53:51;;;;;;;8.60;5.60;;;;;;;;;;6299214;28;20071;-65
2022/07/25 06:56:51;;;;;;;10.33;5.73;;;;;;;;;;6298448;28;20350;-60
2022/07/25 06:59:52;;;;;;;8.53;6.00;;;;;;;;;;6295495;28;20067;-61
2022/07/25 07:02:58;;;;;;;7.20;5.47;;;;;;;;;;6298433;28;20052;-61
2022/07/25 07:06:00;;;;;;;7.75;5.70;;;;;;;;;;6296690;28;20139;-61
2022/07/25 07:09:01;;;;;;;7.05;5.13;;;;;;;;;;6291613;28;20484;-61
2022/07/25 07:12:01;;;;;;;10.60;5.80;;;;;;;;;;6305389;28;20046;-61
2022/07/25 07:15:02;;;;;;;7.57;5.03;;;;;;;;;;6304288;28;20054;-61
2022/07/25 07:18:04;;;;;;;9.20;4.60;;;;;;;;;;6296752;28;20405;-61
2022/07/25 07:21:05;;;;;;;9.45;4.68;;;;;;;;;;6297535;28;21067;-61
2022/07/25 07:24:06;;;;;;;7.75;4.90;;;;;;;;;;6305110;28;20463;-61
2022/07/25 07:27:07;;;;;;;8.00;4.20;;;;;;;;;;6295754;28;20059;-61
2022/07/25 07:30:08;;;;;;;6.07;4.27;;;;;;;;;;6294402;28;20353;-61
2022/07/25 07:33:09;;;;;;;6.45;4.22;;;;;;;;;;6310672;28;20498;-61
2022/07/25 07:36:10;;;;;;;7.33;4.57;;;;;;;;;;6301368;28;20037;-61
2022/07/25 07:39:10;;;;;;;7.33;4.70;;;;;;;;;;6300312;28;20048;-61
2022/07/25 07:42:11;;;;;;;6.17;3.90;;;;;;;;;;6299715;28;20044;-62
2022/07/25 07:45:23;;;;;;;7.30;4.00;;;;;;;;;;6294646;28;20033;-61
2022/07/25 07:48:23;;;;;;;;;;;;;;;;;;6295428;28;20139;-62
2022/07/25 07:51:24;;;;;;;6.85;3.78;;;;;;;;;;6301770;28;19927;-61
2022/07/25 07:57:43;;;;;;;5.25;3.60;;;;;;;;;;6298165;28;20088;-62
2022/07/25 08:00:47;;;;;;;6.40;3.43;;;;;;;;;;6301862;28;20059;-61
2022/07/25 08:03:47;;;;;;;6.82;3.20;;;;;;;;;;6307217;28;20399;-62
2022/07/25 08:06:48;;;;;;;5.57;3.50;;;;;;;;;;6301561;28;20120;-62
2022/07/25 08:09:48;;;;;;;7.33;3.97;;;;;;;;;;6298355;28;20049;-61
2022/07/25 08:12:50;;;;;;;8.57;3.73;;;;;;;;;;6298057;28;20044;-61
2022/07/25 08:15:54;;;;;;;8.95;3.50;;;;;;;;;;6300667;28;20048;-62
2022/07/25 08:18:55;;;;;;;6.07;3.17;;;;;;;;;;6297206;28;20090;-61
2022/07/25 08:21:55;;;;;;;4.83;3.40;;;;;;;;;;6302218;28;20516;-61
2022/07/25 08:24:56;;;;;;;4.50;3.10;;;;;;;;;;6304963;28;20048;-59
2022/07/25 08:27:57;;;;;;;5.73;3.17;;;;;;;;;;6316126;28;20693;-60
2022/07/25 08:30:58;;;;;;;6.50;3.67;;;;;;;;;;6317836;28;20051;-60
2022/07/25 08:33:58;;;;;;;5.93;3.20;;;;;;;;;;6306145;28;20040;-61
2022/07/25 08:37:00;;;;;;;6.03;3.13;;;;;;;;;;6311736;28;20147;-61
2022/07/25 08:40:01;;;;;;;4.72;3.15;;;;;;;;;;6317063;28;20094;-61
2022/07/25 08:43:03;;;;;;;5.07;3.00;;;;;;;;;;6315394;28;20040;-60
2022/07/25 08:46:05;;;;;;;6.40;3.72;;;;;;;;;;6312924;28;20040;-61
2022/07/25 08:49:06;;;;;;;6.20;3.40;;;;;;;;;;6316539;28;20178;-61
2022/07/25 08:52:08;;;;;;;7.05;3.58;;;;;;;;;;6315297;28;20483;-61
2022/07/25 08:55:13;;;;;;;5.70;3.50;;;;;;;;;;6317393;28;20044;-61
2022/07/25 08:58:15;;;;;;;4.50;3.03;;;;;;;;;;6317009;28;20055;-61
2022/07/25 09:01:16;;;;;;;5.22;3.08;;;;;;;;;;6315374;28;20043;-61
2022/07/25 09:04:16;;;;;;;5.00;3.30;;;;;;;;;;6309470;28;20048;-62
2022/07/25 09:07:28;;;;;;;6.67;3.30;;;;;;;;;;6316563;28;20135;-61
2022/07/25 09:10:28;;;;;;;;;;;;;;;;;;6316979;28;20146;-61
2022/07/25 09:13:36;;;;;;;7.70;4.87;;;;;;;;;;6316090;28;19928;-60
2022/07/25 09:16:42;;;;;;;5.60;3.42;;;;;;;;;;6316913;28;20051;-60
2022/07/25 09:19:53;;;;;;;6.25;4.15;;;;;;;;;;6312023;28;20151;-61
2022/07/25 09:22:54;;;;;;;5.13;3.23;;;;;;;;;;6316770;28;20486;-61
2022/07/25 09:26:09;;;;;;;4.67;2.97;;;;;;;;;;6314878;28;20044;-61
2022/07/25 09:29:31;;;;;;;5.30;2.88;;;;;;;;;;6317393;28;20062;-59
2022/07/25 09:32:32;;;;;;;4.25;2.90;;;;;;;;;;6301543;28;20643;-61
2022/07/25 09:35:37;;;;;;;4.33;3.00;;;;;;;;;;6302853;28;20511;-61
2022/07/25 09:38:38;;;;;;;4.47;2.90;;;;;;;;;;6297681;28;20415;-60
2022/07/25 09:41:39;;;;;;;6.10;3.10;;;;;;;;;;6312019;28;20105;-61
2022/07/25 09:44:41;;;;;;;4.97;2.70;;;;;;;;;;6305025;28;20071;-60
2022/07/25 09:47:55;;;;;;;5.25;3.05;;;;;;;;;;6307539;28;20803;-60
2022/07/25 09:50:56;;;;;;;6.60;3.00;;;;;;;;;;6300204;28;20473;-61
2022/07/25 09:53:57;;;;;;;4.45;2.85;;;;;;;;;;6295259;28;20044;-60
2022/07/25 09:56:58;;;;;;;4.83;2.80;;;;;;;;;;6288620;28;20705;-61
2022/07/25 09:59:59;;;;;;;5.30;3.37;;;;;;;;;;6293803;28;20297;-61
2022/07/25 10:03:15;;;;;;;5.15;3.08;;;;;;;;;;6293953;28;20041;-60
2022/07/25 10:06:48;;;;;;;5.53;2.85;;;;;;;;;;6291893;28;20071;-60
2022/07/25 10:09:53;;;;;;;4.05;2.80;;;;;;;;;;6282699;28;20218;-61
2022/07/25 10:13:03;;;;;;;5.10;2.70;;;;;;;;;;6292213;28;20115;-61
2022/07/25 10:16:15;;;;;;;4.20;2.50;;;;;;;;;;6292073;28;20044;-61
2022/07/25 10:19:15;;;;;;;5.07;2.70;;;;;;;;;;6292752;28;20134;-61
2022/07/25 10:22:16;;;;;;;3.80;2.80;;;;;;;;;;6293252;28;20048;-60
2022/07/25 10:25:18;;;;;;;4.33;2.60;;;;;;;;;;6294861;28;20040;-60
2022/07/25 10:28:19;;;;;;;3.70;2.33;;;;;;;;;;6302797;28;20919;-60
2022/07/25 10:31:56;;;;;;;3.90;2.30;;;;;;;;;;6291486;28;20053;-60
2022/07/25 10:34:56;;;;;;;4.13;2.30;;;;;;;;;;6237431;28;20041;-61
2022/07/25 10:37:58;;;;;;;4.80;2.50;;;;;;;;;;6291436;28;20053;-61
2022/07/25 10:41:03;;;;;;;3.72;2.20;;;;;;;;;;6289298;28;20058;-62
2022/07/25 10:44:11;;;;;;;3.70;2.17;;;;;;;;;;6292761;28;20047;-61
2022/07/25 10:47:13;;;;;;;5.60;2.30;;;;;;;;;;6301574;28;20445;-61
2022/07/25 10:50:17;;;;;;;3.78;2.10;;;;;;;;;;6320144;28;20044;-61
2022/07/25 10:53:44;;;;;;;5.43;2.20;;;;;;;;;;6312915;28;20472;-61
2022/07/25 10:56:51;;;;;;;4.72;2.05;;;;;;;;;;6309845;28;20049;-61
2022/07/25 10:59:52;;;;;;;6.30;4.53;;;;;;;;;;6307904;28;20058;-62
2022/07/25 11:02:56;;;;;;;4.95;3.47;;;;;;;;;;6304641;28;20044;-61
2022/07/25 11:05:56;;;;;;;9.80;6.57;;;;;;;;;;6315101;28;20048;-61
2022/07/25 11:08:59;;;;;;;7.17;5.80;;;;;;;;;;6320146;28;20543;-61
2022/07/25 11:12:00;;;;;;;6.15;3.60;;;;;;;;;;6305426;28;20059;-61
2022/07/25 11:15:04;;;;;;;4.13;2.20;;;;;;;;;;6318510;28;20040;-61
2022/07/25 11:18:05;;;;;;;4.82;2.28;;;;;;;;;;6319208;28;20055;-61
2022/07/25 11:21:07;;;;;;;4.67;3.30;;;;;;;;;;6307753;28;20171;-60
2022/07/25 11:24:08;;;;;;;4.05;2.60;;;;;;;;;;6312975;28;20124;-60
2022/07/25 11:27:11;;;;;;;12.40;9.90;;;;;;;;;;6318790;28;20055;-61
2022/07/25 11:30:14;;;;;;;4.72;2.25;;;;;;;;;;6320221;28;20083;-62
2022/07/25 11:33:15;;;;;;;5.30;3.13;;;;;;;;;;6315298;28;20045;-61
2022/07/25 11:36:16;;;;;;;5.53;3.00;;;;;;;;;;6304512;28;20047;-61
2022/07/25 11:39:17;;;;;;;4.90;2.30;;;;;;;;;;6315339;28;20498;-62
2022/07/25 11:42:18;;;;;;;6.90;2.45;;;;;;;;;;6310268;28;20151;-61
2022/07/25 11:45:24;;;;;;;3.58;1.80;;;;;;;;;;6300939;28;20446;-61
2022/07/25 11:48:37;;;;;;;3.50;2.30;;;;;;;;;;6311051;28;20145;-61
2022/07/25 11:51:38;;;;;;;7.65;5.25;;;;;;;;;;6312307;28;20083;-61
2022/07/25 11:54:49;;;;;;;6.57;4.63;;;;;;;;;;6296157;28;20053;-61
2022/07/25 11:57:57;;;;;;;7.47;4.28;;;;;;;;;;6292550;28;20716;-61
2022/07/25 12:00:58;;;;;;;6.32;2.50;;;;;;;;;;6313332;28;20048;-61
2022/07/25 12:04:10;;;;;;;6.43;2.40;;;;;;;;;;6314886;28;20601;-61
2022/07/25 12:07:11;;;;;;;4.97;3.92;;;;;;;;;;6301211;28;20449;-61
2022/07/25 12:10:18;;;;;;;4.37;2.17;;;;;;;;;;6295675;28;20044;-60
2022/07/25 12:13:28;;;;;;;3.38;2.05;;;;;;;;;;6294996;28;20632;-61
2022/07/25 12:16:28;;;;;;;3.03;1.90;;;;;;;;;;6296899;28;20046;-60
2022/07/25 12:19:29;;;;;;;4.60;2.00;;;;;;;;;;6293030;28;20048;-61
2022/07/25 12:22:29;;;;;;;3.83;2.10;;;;;;;;;;6301344;28;20296;-61
2022/07/25 12:25:31;;;;;;;5.57;2.17;;;;;;;;;;6296979;28;20131;-61
2022/07/25 12:28:32;;;;;;;4.85;2.60;;;;;;;;;;6297701;28;20040;-61
2022/07/25 12:31:33;;;;;;;4.10;2.30;;;;;;;;;;6295258;28;20056;-59
2022/07/25 12:34:33;;;;;;;4.13;2.22;;;;;;;;;;6312301;28;20090;-61
2022/07/25 12:37:34;;;;;;;4.75;2.20;;;;;;;;;;6293912;28;20056;-62
2022/07/25 12:40:36;;;;;;;4.72;2.13;;;;;;;;;;6292977;28;20055;-61
2022/07/25 12:43:36;;;;;;;3.95;1.90;;;;;;;;;;6312225;28;20131;-62
2022/07/25 12:46:39;;;;;;;3.90;2.30;;;;;;;;;;6290450;28;20110;-61
2022/07/25 12:49:39;;;;;;;4.53;2.15;;;;;;;;;;6283333;28;20048;-61
2022/07/25 12:52:41;;;;;;;4.40;2.00;;;;;;;;;;6289928;28;20063;-58
2022/07/25 12:55:42;;;;;;;3.40;1.90;;;;;;;;;;6290295;28;20052;-62
2022/07/25 12:58:44;;;;;;;6.87;2.20;;;;;;;;;;6293393;28;20048;-70
2022/07/25 13:01:44;;;;;;;3.67;2.03;;;;;;;;;;6296297;28;20074;-62
2022/07/25 13:04:45;;;;;;;2.73;1.80;;;;;;;;;;6299045;28;20048;-61
2022/07/25 13:07:47;;;;;;;3.35;1.90;;;;;;;;;;6289398;28;20056;-60
2022/07/25 13:10:48;;;;;;;4.13;2.40;;;;;;;;;;6286762;28;20174;-61
2022/07/25 13:13:48;;;;;;;3.95;2.30;;;;;;;;;;6288727;28;20477;-61
2022/07/25 13:16:49;;;;;;;4.33;2.33;;;;;;;;;;6286265;28;20068;-60
2022/07/25 13:19:49;;;;;;;3.83;2.10;;;;;;;;;;6288459;28;20044;-61
2022/07/25 13:22:50;;;;;;;3.87;2.30;;;;;;;;;;6289138;28;20048;-60
2022/07/25 13:25:51;;;;;;;5.65;3.13;;;;;;;;;;6287986;28;20065;-61
2022/07/25 13:28:51;;;;;;;5.18;3.10;;;;;;;;;;6291306;28;20063;-61
2022/07/25 13:31:52;;;;;;;3.47;2.05;;;;;;;;;;6295475;28;20044;-61
2022/07/25 13:34:53;;;;;;;3.97;2.20;;;;;;;;;;6294194;28;20975;-60
2022/07/25 13:37:54;;;;;;;3.58;2.40;;;;;;;;;;6294590;28;20056;-61
2022/07/25 13:40:56;;;;;;;4.00;3.00;;;;;;;;;;6293811;28;20056;-60
2022/07/25 13:43:56;;;;;;;4.20;3.03;;;;;;;;;;6294225;28;20809;-60
2022/07/25 13:46:57;;;;;;;4.17;2.83;;;;;;;;;;6294296;28;20052;-60
2022/07/25 13:49:58;;;;;;;4.03;2.33;;;;;;;;;;6291008;28;20416;-61
2022/07/25 13:52:59;;;;;;;3.67;2.30;;;;;;;;;;6288299;28;21323;-61
2022/07/25 13:56:00;;;;;;;4.88;2.45;;;;;;;;;;6293237;28;20521;-61
2022/07/25 13:59:01;;;;;;;4.37;2.13;;;;;;;;;;6295929;28;20060;-62
2022/07/25 14:02:02;;;;;;;3.92;2.40;;;;;;;;;;6293582;28;20147;-61
2022/07/25 14:05:03;;;;;;;4.72;2.55;;;;;;;;;;6295775;28;20109;-60
2022/07/25 14:08:05;;;;;;;3.97;2.08;;;;;;;;;;6287010;28;20063;-61
2022/07/25 14:11:07;;;;;;;3.75;2.20;;;;;;;;;;6291170;28;20040;-61
2022/07/25 14:14:07;;;;;;;4.32;2.80;;;;;;;;;;6293700;28;20044;-61
2022/07/25 14:17:08;;;;;;;4.43;2.87;;;;;;;;;;6289055;28;20049;-61
2022/07/25 14:20:09;;;;;;;4.07;2.13;;;;;;;;;;6297225;28;20415;-61
2022/07/25 14:23:09;;;;;;;3.60;2.40;;;;;;;;;;6295568;28;20108;-61
2022/07/25 14:26:11;;;;;;;3.03;2.00;;;;;;;;;;6294402;28;20444;-60
2022/07/25 14:29:12;;;;;;;5.30;3.47;;;;;;;;;;6291486;28;20036;-61
2022/07/25 14:32:13;;;;;;;3.95;2.15;;;;;;;;;;6288373;28;20135;-60
2022/07/25 14:35:13;;;;;;;3.80;2.40;;;;;;;;;;6293072;28;20052;-60
2022/07/25 14:38:14;;;;;;;3.80;2.40;;;;;;;;;;6292446;28;20479;-60
2022/07/25 14:41:15;;;;;;;4.20;3.00;;;;;;;;;;6290797;28;20499;-60
2022/07/25 14:44:15;;;;;;;4.43;2.70;;;;;;;;;;6295469;28;20053;-61
2022/07/25 14:47:16;;;;;;;4.38;2.58;;;;;;;;;;6293632;28;20127;-60
2022/07/25 14:50:16;;;;;;;5.10;3.67;;;;;;;;;;6294431;28;20384;-60
2022/07/25 14:53:17;;;;;;;3.85;2.95;;;;;;;;;;6294642;28;20040;-60
2022/07/25 14:56:18;;;;;;;;;;;;;;;;;;6292053;28;20775;-60
2022/07/25 14:59:18;;;;;;;6.13;2.40;;;;;;;;;;6292395;28;19920;-61
2022/07/25 15:02:19;;;;;;;;;;;;;;;;;;6292560;28;20055;-61
2022/07/25 15:05:20;;;;;;;4.00;2.50;;;;;;;;;;6292168;28;20771;-60
2022/07/25 15:08:21;;;;;;;4.80;3.08;;;;;;;;;;6291136;28;20048;-61
2022/07/25 15:11:22;;;;;;;;;;;;;;;;;;6289263;28;20048;-62
2022/07/25 15:14:23;;;;;;;6.50;2.80;;;;;;;;;;6290882;28;20039;-60
2022/07/25 15:17:23;;;;;;;;;;;;;;;;;;6291848;28;20071;-61
2022/07/25 15:20:24;;;;;;;4.20;2.40;;;;;;;;;;6291247;28;19935;-62
2022/07/25 15:23:24;;;;;;;;;;;;;;;;;;6294711;28;20053;-62
2022/07/25 15:26:25;;;;;;;4.47;2.37;;;;;;;;;;6292665;28;19928;-61
2022/07/25 15:29:27;;;;;;;;;;;;;;;;;;6296619;28;20048;-61
2022/07/25 15:32:27;;;;;;;4.53;2.55;;;;;;;;;;6292767;28;20001;-62
2022/07/25 15:35:28;;;;;;;;;;;;;;;;;;6296982;28;20056;-61
2022/07/25 15:38:29;;;;;;;5.53;2.73;;;;;;;;;;6294755;28;19928;-62
2022/07/25 15:41:30;;;;;;;4.40;2.60;;;;;;;;;;6290505;28;20051;-62
2022/07/25 15:44:33;;;;;;;;;;;;;;;;;;6294358;28;20049;-62
2022/07/25 15:47:33;;;;;;;4.70;2.58;;;;;;;;;;6291876;28;19959;-62
2022/07/25 15:50:35;;;;;;;;;;;;;;;;;;6290054;28;20544;-62
2022/07/25 15:53:35;;;;;;;3.60;2.35;;;;;;;;;;6291974;28;19934;-63
2022/07/25 15:56:36;;;;;;;;;;;;;;;;;;6291017;28;20048;-62
2022/07/25 15:59:36;;;;;;;9.73;2.40;;;;;;;;;;6289259;28;20627;-62
2022/07/25 16:02:37;;;;;;;;;;;;;;;;;;6290212;28;20058;-61
2022/07/25 16:05:38;;;;;;;6.33;2.47;;;;;;;;;;6287279;28;20410;-61
2022/07/25 16:08:38;;;;;;;3.30;2.30;;;;;;;;;;6288496;28;20689;-61
2022/07/25 16:11:39;;;;;;;4.35;2.20;;;;;;;;;;6289605;28;20106;-62
2022/07/25 16:14:39;;;;;;;;;;;;;;;;;;6292766;28;20084;-62
2022/07/25 16:17:40;;;;;;;6.07;2.83;;;;;;;;;;6291030;28;19953;-62
2022/07/25 16:20:41;;;;;;;;;;;;;;;;;;6288873;28;20048;-62
2022/07/25 16:23:41;;;;;;;7.27;5.47;;;;;;;;;;6293070;28;20347;-62
2022/07/25 16:26:42;;;;;;;;;;;;;;;;;;6288852;28;20460;-62
2022/07/25 16:29:42;;;;;;;5.50;3.40;;;;;;;;;;6287372;28;19920;-62
2022/07/25 16:32:43;;;;;;;;;;;;;;;;;;6290360;28;20182;-62
2022/07/25 16:35:43;;;;;;;6.90;3.50;;;;;;;;;;6291270;28;19924;-62
2022/07/25 16:38:46;;;;;;;;;;;;;;;;;;6291395;28;20563;-62
2022/07/25 16:41:46;;;;;;;5.85;2.90;;;;;;;;;;6288702;28;19928;-62
2022/07/25 16:44:48;;;;;;;7.88;3.28;;;;;;;;;;6291921;28;20117;-62
2022/07/25 16:47:48;;;;;;;7.40;2.92;;;;;;;;;;6288413;28;20094;-61
2022/07/25 16:50:49;;;;;;;8.40;3.47;;;;;;;;;;6286352;28;20045;-61
2022/07/25 16:53:49;;;;;;;;;;;;;;;;;;6291842;28;20056;-62
2022/07/25 16:56:50;;;;;;;4.97;2.87;;;;;;;;;;6286102;28;19932;-63
2022/07/25 16:59:52;;;;;;;6.13;2.95;;;;;;;;;;6288600;28;20062;-63
2022/07/25 17:02:52;;;;;;;5.63;3.00;;;;;;;;;;6289565;28;20051;-62
2022/07/25 17:05:53;;;;;;;5.65;3.30;;;;;;;;;;6290839;28;20043;-62
2022/07/25 17:08:54;;;;;;;;;;;;;;;;;;6290389;28;20060;-62
2022/07/25 17:11:54;;;;;;;5.70;3.00;;;;;;;;;;6290073;28;20556;-63
2022/07/25 17:14:55;;;;;;;;;;;;;;;;;;6287931;28;20055;-62
2022/07/25 17:17:55;;;;;;;5.40;2.83;;;;;;;;;;6285065;28;19942;-62
2022/07/25 17:20:56;;;;;;;;;;;;;;;;;;6287206;28;20055;-62
2022/07/25 17:23:56;;;;;;;7.03;2.90;;;;;;;;;;6291185;28;19935;-62
2022/07/25 17:26:57;;;;;;;;;;;;;;;;;;6288694;28;20053;-61
2022/07/25 17:29:57;;;;;;;5.07;3.13;;;;;;;;;;6288236;28;19935;-62
2022/07/25 17:32:58;;;;;;;;;;;;;;;;;;6290550;28;20048;-63
2022/07/25 17:35:59;;;;;;;5.63;3.20;;;;;;;;;;6287356;28;19935;-63
2022/07/25 17:38:59;;;;;;;;;;;;;;;;;;6286492;28;20055;-63
2022/07/25 17:42:00;;;;;;;7.40;3.67;;;;;;;;;;6285170;28;19970;-62
2022/07/25 17:45:04;;;;;;;7.15;3.58;;;;;;;;;;6288856;28;20054;-63
2022/07/25 17:48:05;;;;;;;5.57;3.75;;;;;;;;;;6288824;28;20072;-62
2022/07/25 17:51:05;;;;;;;;;;;;;;;;;;6285130;28;21500;-62
2022/07/25 17:54:06;;;;;;;7.63;4.67;;;;;;;;;;6290919;28;19920;-62
2022/07/25 17:57:07;;;;;;;;;;;;;;;;;;6287500;28;20423;-62
2022/07/25 18:00:09;;;;;;;10.65;5.25;;;;;;;;;;6284241;28;19968;-62
2022/07/25 18:03:10;;;;;;;8.95;4.80;;;;;;;;;;6287617;28;20190;-62
2022/07/25 18:06:10;;;;;;;12.77;6.05;;;;;;;;;;6288942;28;20044;-61
2022/07/25 18:09:11;;;;;;;;;;;;;;;;;;6290209;28;20441;-61
2022/07/25 18:12:11;;;;;;;13.63;6.10;;;;;;;;;;6286716;28;19931;-61
2022/07/25 18:15:13;;;;;;;;;;;;;;;;;;6288181;28;20384;-62
2022/07/25 18:18:14;;;;;;;;;;;;;;;;;;6288936;28;19928;-61